createdAt,value
2022-11-07T00:04:48.379Z,40.00
2022-11-07T00:09:53.088Z,45.50
2022-11-07T00:14:56.508Z,43.45
2022-11-07T00:20:00.491Z,42.05
2022-11-07T00:25:06.191Z,41.70
2022-11-07T00:30:10.291Z,38.88
2022-11-07T00:35:13.808Z,38.08
2022-11-07T00:40:19.206Z,46.63
2022-11-07T00:45:22.627Z,40.08
2022-11-07T00:50:26.049Z,36.47
2022-11-07T00:55:32.736Z,36.88
2022-11-07T01:00:36.206Z,38.78
2022-11-07T01:05:39.681Z,37.72
2022-11-07T01:10:44.523Z,33.35
2022-11-07T01:15:47.979Z,38.13
2022-11-07T01:20:53.315Z,36.65
2022-11-07T01:25:58.091Z,34.83
2022-11-07T01:31:04.502Z,38.20
2022-11-07T01:36:11.077Z,32.90
2022-11-07T01:41:25.651Z,37.60
2022-11-07T01:46:32.019Z,34.05
2022-11-07T01:51:40.629Z,27.02
2022-11-07T01:56:46.294Z,27.65
2022-11-07T02:01:50.071Z,26.52
2022-11-07T02:06:59.420Z,25.70
2022-11-07T02:17:36.697Z,26.20
2022-11-07T02:22:49.000Z,22.42
2022-11-07T02:27:57.361Z,26.23
2022-11-07T02:33:01.091Z,21.15
2022-11-07T02:38:07.931Z,25.73
2022-11-07T02:43:14.514Z,19.63
2022-11-07T02:48:18.706Z,19.65
2022-11-07T02:53:22.521Z,19.70
2022-11-07T02:58:27.982Z,18.13
2022-11-07T03:03:32.369Z,18.08
2022-11-07T03:08:36.078Z,16.15
2022-11-07T03:13:42.811Z,17.42
2022-11-07T03:18:46.655Z,15.50
2022-11-07T03:23:50.448Z,16.35
2022-11-07T03:28:55.294Z,22.80
2022-11-07T03:33:58.671Z,17.13
2022-11-07T03:39:04.572Z,18.90
2022-11-07T03:44:09.653Z,20.75
2022-11-07T03:49:12.956Z,19.05
2022-11-07T03:54:16.346Z,16.50
2022-11-07T03:59:21.507Z,18.05
2022-11-07T04:04:25.154Z,16.52
2022-11-07T04:09:28.482Z,15.23
2022-11-07T04:14:51.362Z,16.20
2022-11-07T04:19:56.766Z,15.55
2022-11-07T04:25:00.472Z,15.75
2022-11-07T04:30:20.025Z,15.27
2022-11-07T04:35:25.694Z,13.73
2022-11-07T04:40:29.720Z,15.32
2022-11-07T04:45:34.673Z,16.30
2022-11-07T04:50:38.458Z,14.13
2022-11-07T04:55:42.635Z,16.48
2022-11-07T05:00:48.709Z,20.23
2022-11-07T05:05:52.415Z,13.60
2022-11-07T05:10:55.759Z,15.75
2022-11-07T05:16:00.799Z,18.98
2022-11-07T05:21:04.568Z,18.20
2022-11-07T05:26:08.200Z,17.15
2022-11-07T05:31:17.006Z,19.27
2022-11-07T05:36:22.338Z,16.75
2022-11-07T05:41:26.552Z,13.57
2022-11-07T05:46:31.503Z,18.50
2022-11-07T05:51:35.110Z,23.15
2022-11-07T05:56:42.463Z,19.20
2022-11-07T06:01:51.117Z,15.85
2022-11-07T06:06:55.034Z,15.50
2022-11-07T06:11:58.759Z,15.95
2022-11-07T06:17:03.495Z,18.88
2022-11-07T06:22:09.999Z,21.55
2022-11-07T06:27:19.815Z,21.20
2022-11-07T06:32:25.400Z,16.75
2022-11-07T06:37:29.546Z,17.83
2022-11-07T06:42:33.330Z,19.10
2022-11-07T06:47:38.675Z,13.82
2022-11-07T06:52:42.604Z,16.33
2022-11-07T06:57:46.055Z,12.95
2022-11-07T07:02:58.325Z,10.73
2022-11-07T07:08:02.711Z,13.90
2022-11-07T07:13:06.484Z,12.73
2022-11-07T07:18:11.508Z,17.38
2022-11-07T07:23:14.909Z,13.52
2022-11-07T07:28:18.370Z,12.90
2022-11-07T07:33:23.135Z,15.00
2022-11-07T07:38:26.512Z,12.35
2022-11-07T07:43:31.557Z,15.38
2022-11-07T07:48:39.402Z,15.38
2022-11-07T07:53:43.519Z,11.75
2022-11-07T07:58:48.022Z,13.30
2022-11-07T08:04:02.561Z,13.70
2022-11-07T08:09:07.672Z,13.98
2022-11-07T08:14:11.789Z,12.63
2022-11-07T08:19:18.851Z,13.82
2022-11-07T08:24:22.568Z,15.30
2022-11-07T08:29:26.512Z,12.57
2022-11-07T08:34:31.683Z,13.35
2022-11-07T08:39:35.596Z,13.52
2022-11-07T08:44:39.296Z,14.30
2022-11-07T08:49:48.452Z,14.43
2022-11-07T08:54:52.620Z,17.27
2022-11-07T09:00:04.953Z,11.95
2022-11-07T09:05:11.748Z,12.60
2022-11-07T09:10:19.550Z,13.63
2022-11-07T09:15:23.507Z,16.35
2022-11-07T09:20:29.307Z,12.65
2022-11-07T09:25:36.308Z,13.98
2022-11-07T09:30:41.011Z,10.68
2022-11-07T09:35:48.246Z,13.98
2022-11-07T09:41:00.889Z,14.32
2022-11-07T09:46:19.698Z,12.73
2022-11-07T09:51:34.484Z,8.55
2022-11-07T09:56:40.034Z,8.55
2022-11-07T10:01:43.899Z,9.55
2022-11-07T10:06:55.431Z,9.13
2022-11-07T10:12:12.158Z,8.02
2022-11-07T10:17:26.133Z,11.65
2022-11-07T10:22:44.081Z,9.63
2022-11-07T10:28:06.660Z,7.82
2022-11-07T10:33:22.068Z,9.73
2022-11-07T10:38:31.067Z,9.50
2022-11-07T10:43:40.927Z,8.82
2022-11-07T10:48:56.717Z,7.18
2022-11-07T10:54:02.633Z,9.15
2022-11-07T10:59:14.610Z,4.88
2022-11-07T11:04:22.729Z,8.07
2022-11-07T11:09:32.559Z,5.63
2022-11-07T11:14:36.224Z,6.18
2022-11-07T11:19:51.473Z,5.32
2022-11-07T11:25:05.402Z,5.53
2022-11-07T11:30:14.021Z,4.78
2022-11-07T11:35:42.017Z,6.43
2022-11-07T11:40:56.224Z,6.13
2022-11-07T11:46:12.739Z,4.78
2022-11-07T11:51:21.938Z,8.15
2022-11-07T11:56:40.385Z,7.70
2022-11-07T12:01:53.861Z,8.00
2022-11-07T12:07:07.935Z,6.35
2022-11-07T12:12:32.290Z,10.10
2022-11-07T12:17:43.618Z,7.88
2022-11-07T12:23:02.550Z,9.65
2022-11-07T12:28:30.070Z,5.47
2022-11-07T12:33:41.787Z,7.28
2022-11-07T12:39:05.730Z,8.32
2022-11-07T12:44:32.523Z,9.63
2022-11-07T12:49:58.010Z,7.00
2022-11-07T12:55:05.946Z,8.38
2022-11-07T13:00:24.499Z,8.15
2022-11-07T13:05:40.325Z,7.18
2022-11-07T13:10:54.407Z,5.93
2022-11-07T13:16:15.628Z,6.47
2022-11-07T13:21:19.520Z,4.75
2022-11-07T13:32:07.501Z,6.47
2022-11-07T13:37:21.262Z,5.18
2022-11-07T13:42:28.368Z,6.45
2022-11-07T13:47:39.121Z,5.63
2022-11-07T13:52:52.142Z,4.50
2022-11-07T14:03:01.839Z,5.72
2022-11-07T14:08:08.193Z,5.35
2022-11-07T14:13:13.802Z,6.35
2022-11-07T14:18:20.031Z,7.25
2022-11-07T14:23:26.040Z,6.53
2022-11-07T14:28:36.249Z,6.82
2022-11-07T14:33:49.754Z,5.63
2022-11-07T14:38:55.543Z,4.80
2022-11-07T14:44:03.736Z,5.25
2022-11-07T14:49:19.432Z,6.63
2022-11-07T14:54:24.476Z,6.65
2022-11-07T14:59:33.443Z,8.00
2022-11-07T15:04:42.057Z,10.07
2022-11-07T15:09:45.661Z,8.20
2022-11-07T15:15:01.723Z,5.28
2022-11-07T15:20:08.822Z,6.38
2022-11-07T15:25:25.946Z,8.50
2022-11-07T15:30:32.462Z,7.78
2022-11-07T15:35:44.410Z,7.20
2022-11-07T15:40:48.967Z,8.13
2022-11-07T15:45:54.378Z,8.45
2022-11-07T15:50:59.796Z,9.32
2022-11-07T15:56:08.290Z,7.53
2022-11-07T16:01:12.819Z,8.38
2022-11-07T16:06:24.736Z,6.65
2022-11-07T16:11:28.171Z,8.02
2022-11-07T16:16:34.813Z,10.20
2022-11-07T16:21:39.818Z,8.10
2022-11-07T16:26:46.867Z,12.63
2022-11-07T16:31:50.392Z,10.45
2022-11-07T16:36:56.508Z,10.57
2022-11-07T16:41:59.903Z,8.68
2022-11-07T16:47:04.460Z,8.77
2022-11-07T16:52:13.982Z,9.38
2022-11-07T16:57:19.412Z,11.25
2022-11-07T17:02:25.101Z,14.40
2022-11-07T17:07:30.763Z,11.65
2022-11-07T17:12:34.832Z,11.63
2022-11-07T17:17:38.268Z,12.02
2022-11-07T17:22:46.667Z,11.70
2022-11-07T17:27:51.084Z,10.85
2022-11-07T17:32:54.784Z,9.50
2022-11-07T17:37:59.914Z,11.32
2022-11-07T17:43:03.498Z,16.50
2022-11-07T17:48:08.496Z,20.33
2022-11-07T17:53:15.485Z,17.35
2022-11-07T17:58:19.150Z,17.20
2022-11-07T18:03:22.960Z,18.05
2022-11-07T18:08:50.601Z,16.30
2022-11-07T18:13:52.079Z,17.38
2022-11-07T18:18:56.851Z,28.05
2022-11-07T18:24:02.118Z,26.45
2022-11-07T18:29:08.219Z,24.92
2022-11-07T18:34:14.261Z,25.52
2022-11-07T18:39:22.190Z,24.05
2022-11-07T18:44:26.489Z,27.65
2022-11-07T18:49:30.055Z,23.98
2022-11-07T18:54:35.173Z,21.55
2022-11-07T18:59:39.534Z,17.38
2022-11-07T19:04:43.951Z,19.20
2022-11-07T19:09:48.978Z,18.10
2022-11-07T19:14:52.466Z,30.20
2022-11-07T19:19:56.298Z,12.25
2022-11-07T19:25:01.130Z,13.38
2022-11-07T19:30:06.228Z,13.10
2022-11-07T19:35:10.479Z,16.73
2022-11-07T19:40:16.111Z,14.02
2022-11-07T19:45:20.507Z,15.48
2022-11-07T19:50:25.066Z,14.80
2022-11-07T19:55:30.223Z,15.98
2022-11-07T20:00:37.186Z,16.35
2022-11-07T20:05:41.360Z,18.20
2022-11-07T20:10:48.215Z,24.67
2022-11-07T20:15:58.159Z,25.10
2022-11-07T20:21:04.686Z,22.77
2022-11-07T20:26:13.689Z,20.73
2022-11-07T20:31:19.915Z,27.25
2022-11-07T20:36:23.747Z,20.23
2022-11-07T20:41:29.346Z,20.27
2022-11-07T20:46:34.165Z,20.67
2022-11-07T20:51:38.253Z,26.38
2022-11-07T20:56:44.533Z,23.58
2022-11-07T21:01:51.015Z,22.58
2022-11-07T21:06:55.075Z,24.65
2022-11-07T21:11:59.805Z,21.00
2022-11-07T21:17:04.193Z,22.45
2022-11-07T21:22:07.821Z,28.85
2022-11-07T21:27:12.675Z,22.08
2022-11-07T21:32:16.104Z,28.60
2022-11-07T21:37:19.482Z,33.33
2022-11-07T21:42:24.738Z,26.63
2022-11-07T21:47:28.241Z,23.55
2022-11-07T21:52:31.675Z,21.30
2022-11-07T21:57:36.407Z,18.33
2022-11-07T22:02:39.919Z,22.98
2022-11-07T22:07:43.628Z,23.55
2022-11-07T22:12:48.371Z,21.95
2022-11-07T22:17:52.162Z,21.00
2022-11-07T22:22:55.488Z,25.23
2022-11-07T22:28:00.221Z,25.50
2022-11-07T22:33:04.495Z,24.40
2022-11-07T22:38:10.121Z,20.95
2022-11-07T22:43:18.792Z,22.67
2022-11-07T22:48:23.164Z,20.58
2022-11-07T22:53:26.599Z,24.30
2022-11-07T22:58:31.353Z,22.88
2022-11-07T23:03:35.130Z,17.80
2022-11-07T23:08:39.076Z,17.70
2022-11-07T23:13:44.363Z,19.25
2022-11-07T23:19:31.287Z,20.05
2022-11-07T23:24:34.771Z,16.52
2022-11-07T23:29:38.203Z,19.65
2022-11-07T23:34:42.986Z,15.60
2022-11-07T23:39:46.707Z,13.60
2022-11-07T23:45:08.476Z,13.55
2022-11-07T23:50:31.121Z,13.90
2022-11-07T23:55:42.425Z,12.30
